createdAt,value
2019-04-29T00:02:07.136Z,53.00
2019-04-29T00:04:36.024Z,53.20
2019-04-29T00:07:05.477Z,53.00
2019-04-29T00:09:34.478Z,53.00
2019-04-29T00:12:03.573Z,53.30
2019-04-29T00:14:34.337Z,53.10
2019-04-29T00:17:21.364Z,53.20
2019-04-29T00:20:01.118Z,53.30
2019-04-29T00:22:29.929Z,53.30
2019-04-29T00:24:58.829Z,53.20
2019-04-29T00:27:27.736Z,53.90
2019-04-29T00:29:56.544Z,53.30
2019-04-29T00:32:25.450Z,53.40
2019-04-29T00:34:54.253Z,53.40
2019-04-29T00:37:39.845Z,53.60
2019-04-29T00:40:10.495Z,53.90
2019-04-29T00:42:56.285Z,53.70
2019-04-29T00:45:25.705Z,53.80
2019-04-29T00:47:54.511Z,54.20
2019-04-29T00:50:23.277Z,54.10
2019-04-29T00:52:52.226Z,54.30
2019-04-29T00:55:22.773Z,54.50
2019-04-29T00:57:51.576Z,54.40
2019-04-29T01:00:25.578Z,54.70
2019-04-29T01:02:54.509Z,54.70
2019-04-29T01:05:23.418Z,54.80
2019-04-29T01:07:52.983Z,54.50
2019-04-29T01:10:21.948Z,54.80
2019-04-29T01:12:50.855Z,55.00
2019-04-29T01:15:19.865Z,54.90
2019-04-29T01:17:48.774Z,55.00
2019-04-29T01:20:17.784Z,55.10
2019-04-29T01:22:46.693Z,55.20
2019-04-29T01:25:16.110Z,55.50
2019-04-29T01:27:49.317Z,55.60
2019-04-29T01:30:36.236Z,55.70
2019-04-29T01:33:05.071Z,55.70
2019-04-29T01:35:34.059Z,55.90
2019-04-29T01:38:03.062Z,55.90
2019-04-29T01:40:48.755Z,55.90
2019-04-29T01:43:17.764Z,55.90
2019-04-29T01:45:46.671Z,56.20
2019-04-29T01:48:15.519Z,56.20
2019-04-29T01:50:44.487Z,56.40
2019-04-29T01:53:13.399Z,56.20
2019-04-29T01:55:42.404Z,56.40
2019-04-29T01:58:11.312Z,56.40
2019-04-29T02:00:40.220Z,56.50
2019-04-29T02:03:09.127Z,56.70
2019-04-29T02:05:38.045Z,56.70
2019-04-29T02:08:06.943Z,56.70
2019-04-29T02:10:35.851Z,56.60
2019-04-29T02:13:04.962Z,56.60
2019-04-29T02:15:33.871Z,56.70
2019-04-29T02:18:02.779Z,56.70
2019-04-29T02:20:31.669Z,56.70
2019-04-29T02:23:02.130Z,56.70
2019-04-29T02:25:47.923Z,56.60
2019-04-29T02:28:16.728Z,56.70
2019-04-29T02:30:48.185Z,56.90
2019-04-29T02:33:17.009Z,57.10
2019-04-29T02:35:45.803Z,57.20
2019-04-29T02:38:28.432Z,57.20
2019-04-29T02:41:11.259Z,57.60
2019-04-29T02:43:41.801Z,57.80
2019-04-29T02:46:10.812Z,58.00
2019-04-29T02:48:39.716Z,58.20
2019-04-29T02:51:08.554Z,58.40
2019-04-29T02:53:37.438Z,58.50
2019-04-29T02:56:06.446Z,58.60
2019-04-29T02:58:39.645Z,58.90
2019-04-29T03:01:26.670Z,58.70
2019-04-29T03:03:57.215Z,58.80
2019-04-29T03:06:26.035Z,59.00
2019-04-29T03:08:55.825Z,59.00
2019-04-29T03:11:24.975Z,59.00
2019-04-29T03:13:53.767Z,59.10
2019-04-29T03:16:22.574Z,59.50
2019-04-29T03:18:57.222Z,59.40
2019-04-29T03:21:28.875Z,59.50
2019-04-29T03:23:57.685Z,59.60
2019-04-29T03:26:26.497Z,59.60
2019-04-29T03:28:55.504Z,59.70
2019-04-29T03:31:24.314Z,59.90
2019-04-29T03:33:53.115Z,59.70
2019-04-29T03:36:21.919Z,60.10
2019-04-29T03:38:50.826Z,59.80
2019-04-29T03:41:19.734Z,59.80
2019-04-29T03:43:48.540Z,60.00
2019-04-29T03:46:17.344Z,60.10
2019-04-29T03:48:46.170Z,60.00
2019-04-29T03:51:15.070Z,60.00
2019-04-29T03:53:43.864Z,59.70
2019-04-29T03:56:12.770Z,60.00
2019-04-29T03:58:41.526Z,59.80
2019-04-29T04:01:21.210Z,60.10
2019-04-29T04:03:51.672Z,60.00
2019-04-29T04:06:27.540Z,59.80
2019-04-29T04:09:05.995Z,59.70
2019-04-29T04:11:28.610Z,60.20
2019-04-29T04:13:57.437Z,60.10
2019-04-29T04:16:27.908Z,59.90
2019-04-29T04:19:07.667Z,60.20
2019-04-29T04:21:36.553Z,59.80
2019-04-29T04:24:05.347Z,59.70
2019-04-29T04:26:34.254Z,59.40
2019-04-29T04:29:03.041Z,59.20
2019-04-29T04:31:31.869Z,59.20
2019-04-29T04:34:00.670Z,59.00
2019-04-29T04:36:29.485Z,58.50
2019-04-29T04:38:58.390Z,58.50
2019-04-29T04:41:27.174Z,58.30
2019-04-29T04:43:55.995Z,58.40
2019-04-29T04:46:24.829Z,58.50
2019-04-29T04:48:53.608Z,58.30
2019-04-29T04:51:22.414Z,58.00
2019-04-29T04:53:51.216Z,57.80
2019-04-29T04:56:20.019Z,57.60
2019-04-29T04:58:48.829Z,57.70
2019-04-29T05:01:17.735Z,57.70
2019-04-29T05:03:46.620Z,57.60
2019-04-29T05:06:15.453Z,59.40
2019-04-29T05:08:44.254Z,57.40
2019-04-29T05:11:13.058Z,57.00
2019-04-29T05:13:41.968Z,57.00
2019-04-29T05:16:10.978Z,57.20
2019-04-29T05:18:39.779Z,57.00
2019-04-29T05:21:08.588Z,57.10
2019-04-29T05:23:37.496Z,56.70
2019-04-29T05:26:06.299Z,56.90
2019-04-29T05:28:35.209Z,57.10
2019-04-29T05:31:03.998Z,56.90
2019-04-29T05:33:32.852Z,56.40
2019-04-29T05:36:03.858Z,56.60
2019-04-29T05:38:33.807Z,56.40
2019-04-29T05:41:02.719Z,56.50
2019-04-29T05:43:42.061Z,56.50
2019-04-29T05:46:17.363Z,56.70
2019-04-29T05:48:46.527Z,55.90
2019-04-29T05:51:18.098Z,56.10
2019-04-29T05:53:54.666Z,56.00
2019-04-29T05:56:19.190Z,55.70
2019-04-29T05:58:48.097Z,56.00
2019-04-29T06:01:18.641Z,55.30
2019-04-29T06:03:47.448Z,55.40
2019-04-29T06:06:16.354Z,55.70
2019-04-29T06:08:45.161Z,55.90
2019-04-29T06:11:14.071Z,55.70
2019-04-29T06:13:42.872Z,55.50
2019-04-29T06:16:15.867Z,55.10
2019-04-29T06:18:42.229Z,55.10
2019-04-29T06:21:11.131Z,55.10
2019-04-29T06:23:40.038Z,54.80
2019-04-29T06:26:08.961Z,55.00
2019-04-29T06:28:37.754Z,55.10
2019-04-29T06:31:06.556Z,54.70
2019-04-29T06:33:35.366Z,54.90
2019-04-29T06:36:04.928Z,54.30
2019-04-29T06:38:33.792Z,54.30
2019-04-29T06:41:05.502Z,54.60
2019-04-29T06:43:34.576Z,54.20
2019-04-29T06:46:03.599Z,53.10
2019-04-29T06:48:32.503Z,53.20
2019-04-29T06:51:01.402Z,53.80
2019-04-29T06:53:30.311Z,53.00
2019-04-29T06:55:59.116Z,52.00
2019-04-29T06:58:27.920Z,52.10
2019-04-29T07:01:01.125Z,51.00
2019-04-29T07:03:27.486Z,49.40
2019-04-29T07:05:56.281Z,46.80
2019-04-29T07:08:25.189Z,44.90
2019-04-29T07:10:55.980Z,44.30
2019-04-29T07:13:24.711Z,42.60
2019-04-29T07:15:53.555Z,41.40
2019-04-29T07:18:22.357Z,40.40
2019-04-29T07:20:51.159Z,39.90
2019-04-29T07:23:19.967Z,40.20
2019-04-29T07:25:48.873Z,40.30
2019-04-29T07:28:18.428Z,39.40
2019-04-29T07:31:01.049Z,38.50
2019-04-29T07:33:22.690Z,38.70
2019-04-29T07:35:49.653Z,37.60
2019-04-29T07:38:18.836Z,37.70
2019-04-29T07:40:47.744Z,37.80
2019-04-29T07:43:16.556Z,36.70
2019-04-29T07:45:58.804Z,36.40
2019-04-29T07:48:26.639Z,36.80
2019-04-29T07:50:59.343Z,36.90
2019-04-29T07:53:35.039Z,36.70
2019-04-29T07:55:56.646Z,35.50
2019-04-29T07:58:27.235Z,35.80
2019-04-29T08:00:56.312Z,34.70
2019-04-29T08:03:25.416Z,34.40
2019-04-29T08:05:54.329Z,34.10
2019-04-29T08:08:23.742Z,35.10
2019-04-29T08:10:56.435Z,34.70
2019-04-29T08:13:24.967Z,35.60
2019-04-29T08:15:53.753Z,33.40
2019-04-29T08:18:22.640Z,34.30
2019-04-29T08:20:53.193Z,32.60
2019-04-29T08:23:22.101Z,32.20
2019-04-29T08:25:51.155Z,32.20
2019-04-29T08:28:20.225Z,32.10
2019-04-29T08:30:49.033Z,31.60
2019-04-29T08:33:17.936Z,30.10
2019-04-29T08:35:47.014Z,30.90
2019-04-29T08:38:16.063Z,30.90
2019-04-29T08:40:49.561Z,30.90
2019-04-29T08:43:33.528Z,28.70
2019-04-29T08:46:09.718Z,27.10
2019-04-29T08:48:38.710Z,27.30
2019-04-29T08:51:07.720Z,27.30
2019-04-29T08:53:36.627Z,27.30
2019-04-29T08:56:09.576Z,26.30
2019-04-29T08:58:39.200Z,25.60
2019-04-29T09:01:07.751Z,25.50
2019-04-29T09:03:40.338Z,26.10
2019-04-29T09:06:07.207Z,26.00
2019-04-29T09:08:36.136Z,26.50
2019-04-29T09:11:08.033Z,27.20
2019-04-29T09:13:35.569Z,26.90
2019-04-29T09:16:04.469Z,27.90
2019-04-29T09:18:33.385Z,26.50
2019-04-29T09:21:02.173Z,26.70
2019-04-29T09:23:32.636Z,26.90
2019-04-29T09:26:06.245Z,27.90
2019-04-29T09:28:36.961Z,26.60
2019-04-29T09:31:06.103Z,25.90
2019-04-29T09:33:35.016Z,24.70
2019-04-29T09:36:03.775Z,24.30
2019-04-29T09:38:36.762Z,24.60
2019-04-29T09:41:04.705Z,23.30
2019-04-29T09:43:44.055Z,22.10
2019-04-29T09:46:14.493Z,23.20
2019-04-29T09:48:43.287Z,23.40
2019-04-29T09:51:17.631Z,23.50
2019-04-29T09:53:42.752Z,24.00
2019-04-29T09:56:11.565Z,23.90
2019-04-29T09:58:40.363Z,23.50
2019-04-29T10:01:24.523Z,22.50
2019-04-29T10:04:00.704Z,23.80
2019-04-29T10:06:40.349Z,23.20
2019-04-29T10:09:11.016Z,23.70
2019-04-29T10:11:39.988Z,24.00
2019-04-29T10:14:09.128Z,22.60
2019-04-29T10:16:42.633Z,22.40
2019-04-29T10:19:13.280Z,23.20
2019-04-29T10:21:42.290Z,22.60
2019-04-29T10:24:11.097Z,23.40
2019-04-29T10:26:39.989Z,22.70
2019-04-29T10:29:18.293Z,22.00
2019-04-29T10:31:44.362Z,22.00
2019-04-29T10:34:13.788Z,22.00
2019-04-29T10:36:42.785Z,21.90
2019-04-29T10:39:30.849Z,22.50
2019-04-29T10:42:01.494Z,22.80
2019-04-29T10:44:37.370Z,23.20
2019-04-29T10:47:15.481Z,23.10
2019-04-29T10:49:51.855Z,23.10
2019-04-29T10:52:20.876Z,23.70
2019-04-29T10:54:51.148Z,24.20
2019-04-29T10:57:22.661Z,25.40
2019-04-29T10:59:53.182Z,24.30
2019-04-29T11:02:32.590Z,25.60
2019-04-29T11:05:13.210Z,26.00
2019-04-29T11:07:44.288Z,27.20
2019-04-29T11:10:24.861Z,27.20
2019-04-29T11:12:48.665Z,27.80
2019-04-29T11:15:19.271Z,26.60
2019-04-29T11:17:48.123Z,25.90
2019-04-29T11:20:21.202Z,26.60
2019-04-29T11:22:55.447Z,25.80
2019-04-29T11:25:28.967Z,25.90
2019-04-29T11:27:58.990Z,26.90
2019-04-29T11:30:29.645Z,27.30
2019-04-29T11:33:04.719Z,25.40
2019-04-29T11:35:51.514Z,25.70
2019-04-29T11:38:21.750Z,26.00
2019-04-29T11:40:51.393Z,25.90
2019-04-29T11:43:21.924Z,25.60
2019-04-29T11:45:51.135Z,25.10
2019-04-29T11:48:20.144Z,25.20
2019-04-29T11:50:56.829Z,25.10
2019-04-29T11:53:25.844Z,25.60
2019-04-29T11:55:57.086Z,25.90
2019-04-29T11:58:26.834Z,26.30
2019-04-29T12:01:13.749Z,27.00
2019-04-29T12:03:58.244Z,26.80
2019-04-29T12:06:28.757Z,26.80
2019-04-29T12:08:57.667Z,26.60
2019-04-29T12:11:28.626Z,26.70
2019-04-29T12:14:02.988Z,28.10
2019-04-29T12:16:37.076Z,29.20
2019-04-29T12:19:16.989Z,29.70
2019-04-29T12:21:45.749Z,29.80
2019-04-29T12:24:15.891Z,30.80
2019-04-29T12:26:45.015Z,31.30
2019-04-29T12:29:18.231Z,31.10
2019-04-29T12:32:02.865Z,31.50
2019-04-29T12:34:49.477Z,31.80
2019-04-29T12:37:29.850Z,32.20
2019-04-29T12:40:01.320Z,33.30
2019-04-29T12:42:43.940Z,34.20
2019-04-29T12:45:19.573Z,33.80
2019-04-29T12:47:48.629Z,34.00
2019-04-29T12:50:21.564Z,34.90
2019-04-29T12:52:48.148Z,35.70
2019-04-29T12:55:29.278Z,35.50
2019-04-29T12:57:51.394Z,35.00
2019-04-29T13:03:10.816Z,34.60
2019-04-29T13:05:58.066Z,36.40
2019-04-29T13:08:19.477Z,36.90
2019-04-29T13:10:51.750Z,36.90
2019-04-29T13:13:22.065Z,37.20
2019-04-29T13:15:54.558Z,37.50
2019-04-29T13:18:37.520Z,38.80
2019-04-29T13:21:10.403Z,40.10
2019-04-29T13:23:53.549Z,40.70
2019-04-29T13:26:08.072Z,40.70
2019-04-29T13:28:51.822Z,40.70
2019-04-29T13:31:07.997Z,42.00
2019-04-29T13:33:37.192Z,41.20
2019-04-29T13:36:06.840Z,40.80
2019-04-29T13:38:35.846Z,41.50
2019-04-29T13:41:13.357Z,41.60
2019-04-29T13:43:35.833Z,41.50
2019-04-29T13:46:13.011Z,41.60
2019-04-29T13:48:55.432Z,41.70
2019-04-29T13:51:34.772Z,42.10
2019-04-29T13:53:49.350Z,42.40
2019-04-29T13:56:35.153Z,43.10
2019-04-29T13:58:49.623Z,42.90
2019-04-29T14:01:32.684Z,43.10
2019-04-29T14:04:11.590Z,44.10
2019-04-29T14:06:55.651Z,43.10
2019-04-29T14:09:12.684Z,43.40
2019-04-29T14:11:41.590Z,44.20
2019-04-29T14:14:10.397Z,43.70
2019-04-29T14:16:43.081Z,44.30
2019-04-29T14:19:09.954Z,44.00
2019-04-29T14:21:38.748Z,43.50
2019-04-29T14:24:07.665Z,43.50
2019-04-29T14:26:36.953Z,44.10
2019-04-29T14:29:07.017Z,44.00
2019-04-29T14:31:35.921Z,44.20
2019-04-29T14:34:09.127Z,44.10
2019-04-29T14:36:38.038Z,43.20
2019-04-29T14:39:13.113Z,44.50
2019-04-29T14:41:41.383Z,44.90
2019-04-29T14:44:17.860Z,45.30
2019-04-29T14:46:48.505Z,45.00
2019-04-29T14:49:19.052Z,44.50
2019-04-29T14:51:47.860Z,44.00
2019-04-29T14:54:16.768Z,43.50
2019-04-29T14:56:45.570Z,43.70
2019-04-29T14:59:14.697Z,43.90
2019-04-29T15:01:54.215Z,44.20
2019-04-29T15:04:24.931Z,44.70
2019-04-29T15:06:53.957Z,44.00
2019-04-29T15:09:23.048Z,44.10
2019-04-29T15:11:58.770Z,44.10
2019-04-29T15:14:31.610Z,44.50
2019-04-29T15:17:08.558Z,44.70
2019-04-29T15:19:56.464Z,44.80
2019-04-29T15:22:33.307Z,44.70
2019-04-29T15:25:02.099Z,44.70
2019-04-29T15:27:30.902Z,44.60
2019-04-29T15:29:59.710Z,44.90
2019-04-29T15:32:28.782Z,45.30
2019-04-29T15:34:57.829Z,45.80
2019-04-29T15:37:26.943Z,45.70
2019-04-29T15:39:58.288Z,45.20
2019-04-29T15:42:26.304Z,45.60
2019-04-29T15:44:55.865Z,45.50
2019-04-29T15:47:30.745Z,45.90
2019-04-29T15:50:00.809Z,46.30
2019-04-29T15:52:27.771Z,47.10
2019-04-29T15:54:56.772Z,48.00
2019-04-29T15:57:25.673Z,48.60
2019-04-29T16:00:00.015Z,49.00
2019-04-29T16:02:26.459Z,49.50
2019-04-29T16:05:15.529Z,50.30
2019-04-29T16:07:51.571Z,51.40
2019-04-29T16:10:21.950Z,52.00
2019-04-29T16:12:58.298Z,52.50
2019-04-29T16:15:27.161Z,53.00
2019-04-29T16:17:56.135Z,53.50
2019-04-29T16:20:25.041Z,54.60
2019-04-29T16:23:00.083Z,55.70
2019-04-29T16:25:24.391Z,56.40
2019-04-29T16:27:53.492Z,57.60
2019-04-29T16:30:25.942Z,58.50
2019-04-29T16:32:54.085Z,59.10
2019-04-29T16:35:23.635Z,59.40
2019-04-29T16:37:53.331Z,59.60
2019-04-29T16:40:22.143Z,60.40
2019-04-29T16:42:58.413Z,60.70
2019-04-29T16:45:28.941Z,61.00
2019-04-29T16:47:57.765Z,61.80
2019-04-29T16:50:26.674Z,62.10
2019-04-29T16:52:55.683Z,63.00
2019-04-29T16:55:26.639Z,63.70
2019-04-29T16:57:59.644Z,64.50
2019-04-29T17:00:28.960Z,64.70
2019-04-29T17:02:57.966Z,65.30
2019-04-29T17:05:26.875Z,66.00
2019-04-29T17:07:55.881Z,66.40
2019-04-29T17:10:29.091Z,66.60
2019-04-29T17:12:58.100Z,67.00
2019-04-29T17:15:27.415Z,66.70
2019-04-29T17:17:56.224Z,67.30
2019-04-29T17:20:25.114Z,68.10
2019-04-29T17:22:53.939Z,68.80
2019-04-29T17:25:23.156Z,69.10
2019-04-29T17:28:02.703Z,69.80
2019-04-29T17:30:46.585Z,70.30
2019-04-29T17:33:28.009Z,71.30
2019-04-29T17:35:54.074Z,72.20
2019-04-29T17:38:22.895Z,72.90
2019-04-29T17:40:51.803Z,73.60
2019-04-29T17:43:28.489Z,74.20
2019-04-29T17:46:11.016Z,74.90
2019-04-29T17:48:48.572Z,75.70
2019-04-29T17:51:17.979Z,76.80
2019-04-29T17:53:51.590Z,77.50
2019-04-29T17:56:35.068Z,78.40
2019-04-29T17:59:11.982Z,79.10
2019-04-29T18:01:58.697Z,79.70
2019-04-29T18:04:45.633Z,80.10
2019-04-29T18:07:18.925Z,81.10
2019-04-29T18:09:55.290Z,81.60
2019-04-29T18:12:24.880Z,81.90
2019-04-29T18:14:55.094Z,82.20
2019-04-29T18:17:30.299Z,83.00
2019-04-29T18:20:08.595Z,83.50
2019-04-29T18:22:36.218Z,83.70
2019-04-29T18:25:07.194Z,84.50
2019-04-29T18:27:40.277Z,85.20
2019-04-29T18:30:12.203Z,85.40
2019-04-29T18:32:42.324Z,85.40
2019-04-29T18:35:10.687Z,85.50
2019-04-29T18:37:39.592Z,85.90
2019-04-29T18:40:08.937Z,86.60
2019-04-29T18:42:41.715Z,86.90
2019-04-29T18:45:08.718Z,87.60
2019-04-29T18:47:38.892Z,88.50
2019-04-29T18:50:08.940Z,89.10
2019-04-29T18:52:37.848Z,89.40
2019-04-29T18:55:07.149Z,88.70
2019-04-29T18:57:35.970Z,87.70
2019-04-29T19:00:12.041Z,85.60
2019-04-29T19:02:45.353Z,86.00
2019-04-29T19:05:14.922Z,85.50
2019-04-29T19:07:54.368Z,84.90
2019-04-29T19:10:18.377Z,85.50
2019-04-29T19:12:57.027Z,84.90
2019-04-29T19:15:17.892Z,84.60
2019-04-29T19:17:58.272Z,83.20
2019-04-29T19:20:18.650Z,83.10
2019-04-29T19:22:48.662Z,84.00
2019-04-29T19:25:17.597Z,82.20
2019-04-29T19:27:46.388Z,81.40
2019-04-29T19:30:20.813Z,80.60
2019-04-29T19:32:46.844Z,79.60
2019-04-29T19:35:16.885Z,79.40
2019-04-29T19:37:46.128Z,79.00
2019-04-29T19:40:15.324Z,79.90
2019-04-29T19:42:46.871Z,79.90
2019-04-29T19:45:17.256Z,79.40
2019-04-29T19:47:50.659Z,79.00
2019-04-29T19:50:19.444Z,77.40
2019-04-29T19:52:46.738Z,76.60
2019-04-29T19:55:15.542Z,75.60
2019-04-29T19:57:48.039Z,74.90
2019-04-29T20:00:17.366Z,75.10
2019-04-29T20:02:49.529Z,73.70
2019-04-29T20:05:18.297Z,72.90
2019-04-29T20:07:50.580Z,71.90
2019-04-29T20:10:19.155Z,71.70
2019-04-29T20:12:53.098Z,71.00
2019-04-29T20:15:19.561Z,70.20
2019-04-29T20:17:56.977Z,69.70
2019-04-29T20:20:36.854Z,69.00
2019-04-29T20:23:01.260Z,68.90
2019-04-29T20:25:35.806Z,68.00
2019-04-29T20:28:05.958Z,67.10
2019-04-29T20:30:31.374Z,66.50
2019-04-29T20:33:08.875Z,65.70
2019-04-29T20:35:32.694Z,64.20
2019-04-29T20:38:01.769Z,63.10
2019-04-29T20:40:35.313Z,62.00
2019-04-29T20:43:01.441Z,61.40
2019-04-29T20:45:30.691Z,60.20
2019-04-29T20:47:59.755Z,59.70
2019-04-29T20:50:29.013Z,58.90
2019-04-29T20:53:02.259Z,58.70
2019-04-29T20:55:31.872Z,57.80
2019-04-29T20:58:03.504Z,57.40
2019-04-29T21:00:35.029Z,57.50
2019-04-29T21:03:03.978Z,56.70
2019-04-29T21:05:47.112Z,56.10
2019-04-29T21:08:14.675Z,55.90
2019-04-29T21:10:38.004Z,55.70
2019-04-29T21:13:08.893Z,55.80
2019-04-29T21:15:39.745Z,55.30
2019-04-29T21:18:14.261Z,55.10
2019-04-29T21:20:39.086Z,54.90
2019-04-29T21:23:08.006Z,54.60
2019-04-29T21:25:37.174Z,54.80
2019-04-29T21:28:06.127Z,54.70
2019-04-29T21:30:37.845Z,54.70
2019-04-29T21:33:08.296Z,54.90
2019-04-29T21:35:57.767Z,54.60
2019-04-29T21:38:32.768Z,54.40
2019-04-29T21:41:06.383Z,54.50
2019-04-29T21:43:39.589Z,54.80
2019-04-29T21:46:08.496Z,54.60
2019-04-29T21:48:37.491Z,54.60
2019-04-29T21:51:06.765Z,54.60
2019-04-29T21:53:40.238Z,54.50
2019-04-29T21:56:09.487Z,54.10
2019-04-29T21:58:38.868Z,54.60
2019-04-29T22:01:08.490Z,54.70
2019-04-29T22:03:37.503Z,54.90
2019-04-29T22:06:06.285Z,54.80
2019-04-29T22:08:35.467Z,54.90
2019-04-29T22:11:05.220Z,55.10
2019-04-29T22:13:38.922Z,55.00
2019-04-29T22:16:05.730Z,55.10
2019-04-29T22:18:35.583Z,55.10
2019-04-29T22:21:06.553Z,55.30
2019-04-29T22:23:35.351Z,55.50
2019-04-29T22:26:05.083Z,55.40
2019-04-29T22:28:35.144Z,55.50
2019-04-29T22:31:07.446Z,55.80
2019-04-29T22:33:38.476Z,85.60
2019-04-29T22:36:05.468Z,55.60
2019-04-29T22:38:36.000Z,84.20
2019-04-29T22:41:06.673Z,55.80
2019-04-29T22:43:44.261Z,55.80
2019-04-29T22:46:11.163Z,56.00
2019-04-29T22:48:40.600Z,56.00
2019-04-29T22:51:15.226Z,56.30
2019-04-29T22:53:44.830Z,56.10
2019-04-29T22:56:14.239Z,56.20
2019-04-29T22:58:43.845Z,56.40
2019-04-29T23:01:12.573Z,56.40
2019-04-29T23:03:41.378Z,56.50
2019-04-29T23:06:10.406Z,56.80
2019-04-29T23:08:39.397Z,57.20
2019-04-29T23:11:10.250Z,56.90
2019-04-29T23:13:39.054Z,57.50
2019-04-29T23:16:07.961Z,57.30
2019-04-29T23:18:42.271Z,57.50
2019-04-29T23:21:18.062Z,57.50
2019-04-29T23:23:51.208Z,57.80
2019-04-29T23:26:20.179Z,58.00
2019-04-29T23:28:50.051Z,58.10
2019-04-29T23:31:22.707Z,57.90
2019-04-29T23:33:53.158Z,58.40
2019-04-29T23:36:19.999Z,58.40
2019-04-29T23:38:48.906Z,58.20
2019-04-29T23:41:18.121Z,58.30
2019-04-29T23:43:47.030Z,58.10
2019-04-29T23:46:16.149Z,58.40
2019-04-29T23:48:46.720Z,59.10
2019-04-29T23:51:15.800Z,59.00
2019-04-29T23:53:45.302Z,59.10
2019-04-29T23:56:15.342Z,59.10
2019-04-29T23:58:47.048Z,60.10
